aviador You're here:

KPAE Decoded Metar

EVERETT in WA, USA
Report Time2017-12-16 03:31:00
UTC Time2017-12-16 03:41:10
Flight Rules ifr IFR
Wind160° at 07 kt
W.Decomp.*RWY 16: 6.7 kt HW 2 kt LCW
RWY 11: 5.9 kt HW 3.8 kt RCW
W.Rank160° ranks 2
Current wind is below 160° avg. (8.9)
Visibility3219 m
Phenomena:Mist
Vicinity Fog
Clouds:Scattered 023 Hf
Broken 110 Hf
Expected CloudBase > 400 ft AGL from Temp-Dew spread
Ceiling11,000 ft
Temp05°C (ISA -9)
Dew Point04°C (93% RH)
AAT1.2°C
QNH1023 hPa
Density Alt-702 ft
Elevation591 ft
Report Wrong Elevation
Raw Report
KPAE 160331Z 16007KT 2SM BR VCFG SCT023 BKN110 05/04 A3021 RMK AO2
T00500044=

Extra information for KPAE:More info

Metar Taf Metar & Taf Last 4 Metars F.Rules Stats Wind Profile Meteogram Temp Stats Airport Information Weather charts Add Link Nearby VenuesMetar ALERT Operation Metar Decoded Social comments

AIRNAV info for KPAE